N44CK KSAN-KAPC
Flight info
| Callsign | N44CK |
|---|---|
| Flight time | N/A |
| Altitude | 34000 |
| Route | PADRZ2 OROSZ COREZ RGOOD VNYRD1 |
| Aircraft | C525/L-SDFGRWY/S |
Departure
| Time | 2026-05-07 00:03 |
|---|---|
| Airport | San Diego International Airport (KSAN) |
Arrival
| Time | N/A |
|---|---|
| Airport | Napa County Airport (KAPC) |
| Time | Latitude | Longitude | Altitude | Speed | Heading |
|---|---|---|---|---|---|
| 2026-05-06 23:53 | 32.73331 | -117.17818 | 23 ft | 0 kts | 17° |
| 2026-05-06 23:58 | 32.73337 | -117.17819 | 23 ft | 2 kts | 334° |
| 2026-05-06 23:58 | 32.73347 | -117.17845 | 23 ft | 5 kts | 284° |
| 2026-05-06 23:58 | 32.73360 | -117.17887 | 23 ft | 4 kts | 290° |
| 2026-05-06 23:59 | 32.73368 | -117.17920 | 22 ft | 4 kts | 280° |
| 2026-05-06 23:59 | 32.73347 | -117.17954 | 22 ft | 6 kts | 203° |
| 2026-05-06 23:59 | 32.73299 | -117.17972 | 22 ft | 7 kts | 197° |
| 2026-05-06 23:59 | 32.73243 | -117.17979 | 22 ft | 8 kts | 159° |
| 2026-05-07 00:00 | 32.73217 | -117.17921 | 22 ft | 8 kts | 105° |
| 2026-05-07 00:00 | 32.73198 | -117.17841 | 22 ft | 10 kts | 107° |
| 2026-05-07 00:00 | 32.73175 | -117.17747 | 22 ft | 12 kts | 105° |
| 2026-05-07 00:00 | 32.73157 | -117.17687 | 23 ft | 9 kts | 124° |
| 2026-05-07 00:01 | 32.73119 | -117.17667 | 23 ft | 0 kts | 197° |
| 2026-05-07 00:02 | 32.73114 | -117.17670 | 23 ft | 2 kts | 198° |
| 2026-05-07 00:02 | 32.73085 | -117.17678 | 22 ft | 6 kts | 193° |
| 2026-05-07 00:02 | 32.73056 | -117.17716 | 22 ft | 13 kts | 275° |
| 2026-05-07 00:03 | 32.73157 | -117.18146 | 21 ft | 93 kts | 287° |
| 2026-05-07 00:03 | 32.73391 | -117.19055 | 258 ft | 130 kts | 289° |
| 2026-05-07 00:03 | 32.73775 | -117.20155 | 617 ft | 166 kts | 301° |
| 2026-05-07 00:03 | 32.74494 | -117.21336 | 1340 ft | 183 kts | 307° |
| 2026-05-07 00:04 | 32.75263 | -117.22596 | 2110 ft | 196 kts | 303° |
| 2026-05-07 00:04 | 32.75977 | -117.23988 | 2991 ft | 202 kts | 302° |
| 2026-05-07 00:04 | 32.76693 | -117.25421 | 3853 ft | 208 kts | 302° |
| 2026-05-07 00:04 | 32.77444 | -117.26914 | 4722 ft | 212 kts | 303° |
| 2026-05-07 00:05 | 32.78199 | -117.28394 | 5576 ft | 215 kts | 304° |
| 2026-05-07 00:05 | 32.78986 | -117.29922 | 6441 ft | 217 kts | 304° |
| 2026-05-07 00:05 | 32.79773 | -117.31418 | 7289 ft | 217 kts | 307° |
| 2026-05-07 00:05 | 32.80650 | -117.32869 | 8153 ft | 216 kts | 311° |
| 2026-05-07 00:06 | 32.81535 | -117.34266 | 8997 ft | 213 kts | 312° |
| 2026-05-07 00:06 | 32.82426 | -117.35656 | 9849 ft | 210 kts | 313° |
| 2026-05-07 00:06 | 32.83285 | -117.36992 | 10674 ft | 205 kts | 314° |
| 2026-05-07 00:06 | 32.84152 | -117.38339 | 11395 ft | 205 kts | 314° |
| 2026-05-07 00:07 | 32.85011 | -117.39672 | 12123 ft | 203 kts | 315° |
| 2026-05-07 00:07 | 32.85867 | -117.41001 | 12825 ft | 201 kts | 315° |
| 2026-05-07 00:07 | 32.86719 | -117.42321 | 13422 ft | 204 kts | 315° |
| 2026-05-07 00:07 | 32.87592 | -117.43670 | 13933 ft | 211 kts | 315° |
| 2026-05-07 00:08 | 32.88504 | -117.45081 | 14442 ft | 218 kts | 315° |
| 2026-05-07 00:08 | 32.89440 | -117.46529 | 14946 ft | 225 kts | 315° |
| 2026-05-07 00:08 | 32.90407 | -117.48029 | 15447 ft | 232 kts | 315° |
| 2026-05-07 00:08 | 32.91394 | -117.49562 | 15946 ft | 237 kts | 315° |
| 2026-05-07 00:09 | 32.92415 | -117.51149 | 16449 ft | 243 kts | 315° |
| 2026-05-07 00:09 | 32.93452 | -117.52763 | 16961 ft | 247 kts | 314° |
| 2026-05-07 00:09 | 32.94489 | -117.54380 | 17477 ft | 251 kts | 314° |
| 2026-05-07 00:09 | 32.95566 | -117.56060 | 17988 ft | 255 kts | 314° |
| 2026-05-07 00:10 | 32.96650 | -117.57752 | 18487 ft | 258 kts | 314° |
| 2026-05-07 00:10 | 32.97756 | -117.59480 | 18981 ft | 260 kts | 315° |
| 2026-05-07 00:10 | 32.98867 | -117.61216 | 19484 ft | 262 kts | 314° |
| 2026-05-07 00:10 | 32.99971 | -117.62941 | 19991 ft | 263 kts | 315° |
| 2026-05-07 00:11 | 33.01096 | -117.64700 | 20497 ft | 263 kts | 315° |
| 2026-05-07 00:11 | 33.02204 | -117.66435 | 20990 ft | 264 kts | 314° |
| 2026-05-07 00:11 | 33.03299 | -117.68150 | 21476 ft | 263 kts | 314° |
| 2026-05-07 00:11 | 33.04406 | -117.69882 | 21973 ft | 262 kts | 315° |
| 2026-05-07 00:12 | 33.05508 | -117.71609 | 22462 ft | 261 kts | 315° |
| 2026-05-07 00:12 | 33.06681 | -117.73242 | 22956 ft | 254 kts | 323° |
| 2026-05-07 00:12 | 33.07988 | -117.74656 | 23462 ft | 250 kts | 326° |
| 2026-05-07 00:12 | 33.09302 | -117.75996 | 23971 ft | 247 kts | 328° |
| 2026-05-07 00:13 | 33.10613 | -117.77316 | 24479 ft | 244 kts | 328° |
| 2026-05-07 00:13 | 33.11931 | -117.78642 | 24869 ft | 247 kts | 328° |
| 2026-05-07 00:13 | 33.13261 | -117.79982 | 25265 ft | 249 kts | 328° |
| 2026-05-07 00:13 | 33.14585 | -117.81321 | 25651 ft | 250 kts | 328° |
| 2026-05-07 00:14 | 33.15907 | -117.82659 | 26033 ft | 252 kts | 328° |
| 2026-05-07 00:14 | 33.17263 | -117.84036 | 26421 ft | 253 kts | 328° |
| 2026-05-07 00:14 | 33.18608 | -117.85403 | 26806 ft | 254 kts | 328° |
| 2026-05-07 00:14 | 33.19943 | -117.86753 | 27191 ft | 254 kts | 329° |
| 2026-05-07 00:15 | 33.21310 | -117.88094 | 27582 ft | 254 kts | 330° |
| 2026-05-07 00:15 | 33.22697 | -117.89441 | 27970 ft | 254 kts | 330° |
| 2026-05-07 00:15 | 33.24078 | -117.90782 | 28362 ft | 253 kts | 329° |
| 2026-05-07 00:15 | 33.25443 | -117.92110 | 28747 ft | 253 kts | 330° |
| 2026-05-07 00:16 | 33.26811 | -117.93442 | 29138 ft | 252 kts | 330° |
| 2026-05-07 00:16 | 33.28154 | -117.94752 | 29521 ft | 251 kts | 330° |
| 2026-05-07 00:16 | 33.29507 | -117.96072 | 29910 ft | 249 kts | 330° |
| 2026-05-07 00:16 | 33.30858 | -117.97391 | 30259 ft | 249 kts | 331° |
| 2026-05-07 00:17 | 33.32217 | -117.98715 | 30515 ft | 252 kts | 331° |
| 2026-05-07 00:17 | 33.33586 | -118.00050 | 30770 ft | 255 kts | 330° |
| 2026-05-07 00:17 | 33.34965 | -118.01395 | 31031 ft | 258 kts | 330° |
| 2026-05-07 00:17 | 33.36367 | -118.02766 | 31292 ft | 260 kts | 330° |
| 2026-05-07 00:18 | 33.37761 | -118.04130 | 31545 ft | 263 kts | 330° |
| 2026-05-07 00:18 | 33.39191 | -118.05530 | 31806 ft | 264 kts | 330° |
| 2026-05-07 00:18 | 33.40608 | -118.06919 | 32061 ft | 266 kts | 330° |
| 2026-05-07 00:18 | 33.42046 | -118.08329 | 32320 ft | 268 kts | 330° |
| 2026-05-07 00:19 | 33.43488 | -118.09744 | 32580 ft | 269 kts | 330° |
| 2026-05-07 00:19 | 33.44935 | -118.11164 | 32835 ft | 270 kts | 330° |
| 2026-05-07 00:19 | 33.46394 | -118.12597 | 33096 ft | 271 kts | 330° |
| 2026-05-07 00:19 | 33.47860 | -118.14038 | 33350 ft | 272 kts | 330° |
| 2026-05-07 00:20 | 33.49321 | -118.15475 | 33609 ft | 272 kts | 330° |
| 2026-05-07 00:20 | 33.50780 | -118.16910 | 33864 ft | 273 kts | 330° |
| 2026-05-07 00:20 | 33.52266 | -118.18370 | 34017 ft | 277 kts | 330° |
| 2026-05-07 00:20 | 33.53781 | -118.19854 | 34044 ft | 286 kts | 330° |
| 2026-05-07 00:21 | 33.55349 | -118.21391 | 34050 ft | 295 kts | 329° |
| 2026-05-07 00:21 | 33.56963 | -118.22955 | 34049 ft | 301 kts | 332° |
| 2026-05-07 00:21 | 33.60682 | -118.25341 | 34048 ft | 307 kts | 342° |
| 2026-05-07 00:22 | 33.64680 | -118.27535 | 34045 ft | 320 kts | 343° |
| 2026-05-07 00:22 | 33.68812 | -118.29799 | 34039 ft | 328 kts | 342° |
| 2026-05-07 00:23 | 33.72977 | -118.32094 | 34040 ft | 330 kts | 342° |
| 2026-05-07 00:23 | 33.77209 | -118.34396 | 34040 ft | 332 kts | 343° |
| 2026-05-07 00:24 | 33.81514 | -118.36565 | 34042 ft | 335 kts | 344° |
| 2026-05-07 00:24 | 33.85867 | -118.38746 | 34041 ft | 337 kts | 344° |
| 2026-05-07 00:25 | 33.90251 | -118.40951 | 34045 ft | 339 kts | 343° |
| 2026-05-07 00:25 | 33.94654 | -118.43173 | 34042 ft | 341 kts | 343° |
| 2026-05-07 00:26 | 33.99051 | -118.45397 | 34044 ft | 343 kts | 343° |
| 2026-05-07 00:26 | 34.03446 | -118.47625 | 34041 ft | 344 kts | 343° |
| 2026-05-07 00:27 | 34.07902 | -118.49888 | 34043 ft | 345 kts | 343° |
| 2026-05-07 00:27 | 34.12363 | -118.52156 | 34043 ft | 346 kts | 343° |
| 2026-05-07 00:28 | 34.16831 | -118.54431 | 34043 ft | 347 kts | 343° |
| 2026-05-07 00:28 | 34.21305 | -118.56712 | 34046 ft | 349 kts | 343° |
| 2026-05-07 00:29 | 34.25791 | -118.59000 | 34045 ft | 349 kts | 343° |
| 2026-05-07 00:30 | 34.34790 | -118.63545 | 34057 ft | 350 kts | 343° |
| 2026-05-07 00:30 | 34.39306 | -118.65765 | 34052 ft | 350 kts | 343° |
| 2026-05-07 00:31 | 34.43746 | -118.68244 | 34066 ft | 355 kts | 335° |
| 2026-05-07 00:31 | 34.47957 | -118.71446 | 34056 ft | 357 kts | 333° |
| 2026-05-07 00:32 | 34.52140 | -118.74708 | 34068 ft | 356 kts | 333° |
| 2026-05-07 00:32 | 34.56335 | -118.77975 | 34084 ft | 356 kts | 333° |
| 2026-05-07 00:33 | 34.60502 | -118.81219 | 34117 ft | 355 kts | 332° |
| 2026-05-07 00:33 | 34.64653 | -118.84449 | 34148 ft | 355 kts | 333° |
| 2026-05-07 00:34 | 34.68829 | -118.87700 | 34175 ft | 354 kts | 332° |
| 2026-05-07 00:34 | 34.72971 | -118.90928 | 34200 ft | 354 kts | 332° |
| 2026-05-07 00:35 | 34.77119 | -118.94164 | 34224 ft | 354 kts | 332° |
| 2026-05-07 00:35 | 34.81305 | -118.97433 | 34207 ft | 355 kts | 332° |
| 2026-05-07 00:36 | 34.85488 | -119.00703 | 34185 ft | 356 kts | 332° |
| 2026-05-07 00:36 | 34.89679 | -119.03982 | 34156 ft | 357 kts | 332° |
| 2026-05-07 00:37 | 34.93876 | -119.07273 | 34130 ft | 358 kts | 332° |
| 2026-05-07 00:37 | 34.98073 | -119.10566 | 34108 ft | 359 kts | 332° |
| 2026-05-07 00:38 | 35.02270 | -119.13864 | 34094 ft | 359 kts | 332° |
| 2026-05-07 00:38 | 35.06447 | -119.17150 | 34092 ft | 359 kts | 332° |
| 2026-05-07 00:39 | 35.10645 | -119.20457 | 34085 ft | 359 kts | 332° |
| 2026-05-07 00:39 | 35.14791 | -119.23726 | 34073 ft | 360 kts | 332° |
| 2026-05-07 00:40 | 35.19024 | -119.27068 | 34073 ft | 361 kts | 331° |
| 2026-05-07 00:40 | 35.23236 | -119.30399 | 34066 ft | 361 kts | 332° |
| 2026-05-07 00:41 | 35.27476 | -119.33754 | 34065 ft | 361 kts | 332° |
| 2026-05-07 00:41 | 35.31675 | -119.37083 | 34062 ft | 361 kts | 332° |
| 2026-05-07 00:42 | 35.35903 | -119.40438 | 34058 ft | 362 kts | 331° |
| 2026-05-07 00:42 | 35.40135 | -119.43800 | 34059 ft | 362 kts | 331° |
| 2026-05-07 00:43 | 35.44367 | -119.47167 | 34058 ft | 362 kts | 331° |
| 2026-05-07 00:43 | 35.48590 | -119.50532 | 34054 ft | 362 kts | 331° |
| 2026-05-07 00:44 | 35.52845 | -119.53925 | 34047 ft | 362 kts | 331° |
| 2026-05-07 00:44 | 35.57060 | -119.57291 | 34050 ft | 362 kts | 331° |
| 2026-05-07 00:45 | 35.61283 | -119.60669 | 34047 ft | 362 kts | 331° |
| 2026-05-07 00:45 | 35.65509 | -119.64052 | 34045 ft | 362 kts | 331° |
| 2026-05-07 00:46 | 35.69739 | -119.67443 | 34041 ft | 362 kts | 330° |
| 2026-05-07 00:46 | 35.73954 | -119.70828 | 34040 ft | 362 kts | 330° |
| 2026-05-07 00:47 | 35.78153 | -119.74202 | 34032 ft | 362 kts | 330° |
| 2026-05-07 00:47 | 35.82375 | -119.77600 | 34021 ft | 362 kts | 330° |
| 2026-05-07 00:48 | 35.86575 | -119.80984 | 34022 ft | 362 kts | 330° |
| 2026-05-07 00:48 | 35.90825 | -119.84293 | 34015 ft | 359 kts | 336° |
| 2026-05-07 00:49 | 35.95422 | -119.86636 | 34027 ft | 356 kts | 342° |
| 2026-05-07 00:49 | 36.00037 | -119.88792 | 34023 ft | 356 kts | 342° |
| 2026-05-07 00:50 | 36.04673 | -119.90958 | 34027 ft | 356 kts | 342° |
| 2026-05-07 00:50 | 36.09309 | -119.93134 | 34034 ft | 356 kts | 342° |
| 2026-05-07 00:51 | 36.12427 | -119.94601 | 34031 ft | 356 kts | 342° |